sensor_id;sensor_type;location;lat;lon;timestamp;P1;durP1;ratioP1;P2;durP2;ratioP2
53594;SDS011;39479;45.720;11.310;2023-04-25T00:00:26;3.38;;;3.00;;
53594;SDS011;39479;45.720;11.310;2023-04-25T00:02:52;3.22;;;2.92;;
53594;SDS011;39479;45.720;11.310;2023-04-25T00:05:18;3.55;;;3.25;;
53594;SDS011;39479;45.720;11.310;2023-04-25T00:07:44;4.28;;;3.67;;
53594;SDS011;39479;45.720;11.310;2023-04-25T00:10:11;3.65;;;3.03;;
53594;SDS011;39479;45.720;11.310;2023-04-25T00:12:37;3.83;;;3.42;;
53594;SDS011;39479;45.720;11.310;2023-04-25T00:15:04;3.50;;;3.20;;
53594;SDS011;39479;45.720;11.310;2023-04-25T00:17:30;3.72;;;3.13;;
53594;SDS011;39479;45.720;11.310;2023-04-25T00:19:56;6.60;;;3.08;;
53594;SDS011;39479;45.720;11.310;2023-04-25T00:22:23;3.05;;;2.60;;
53594;SDS011;39479;45.720;11.310;2023-04-25T00:24:49;5.35;;;3.33;;
53594;SDS011;39479;45.720;11.310;2023-04-25T00:27:15;3.33;;;3.00;;
53594;SDS011;39479;45.720;11.310;2023-04-25T00:29:41;4.38;;;2.67;;
53594;SDS011;39479;45.720;11.310;2023-04-25T00:32:07;2.17;;;1.73;;
53594;SDS011;39479;45.720;11.310;2023-04-25T00:34:33;2.00;;;1.85;;
53594;SDS011;39479;45.720;11.310;2023-04-25T00:36:59;1.30;;;1.30;;
53594;SDS011;39479;45.720;11.310;2023-04-25T00:39:27;1.13;;;1.13;;
53594;SDS011;39479;45.720;11.310;2023-04-25T00:41:53;4.30;;;1.15;;
53594;SDS011;39479;45.720;11.310;2023-04-25T00:44:20;2.03;;;1.90;;
53594;SDS011;39479;45.720;11.310;2023-04-25T00:46:47;2.58;;;1.90;;
53594;SDS011;39479;45.720;11.310;2023-04-25T00:49:14;4.00;;;2.13;;
53594;SDS011;39479;45.720;11.310;2023-04-25T00:51:41;2.13;;;1.88;;
53594;SDS011;39479;45.720;11.310;2023-04-25T00:54:09;1.55;;;1.20;;
53594;SDS011;39479;45.720;11.310;2023-04-25T00:56:36;1.92;;;1.60;;
53594;SDS011;39479;45.720;11.310;2023-04-25T00:59:02;1.83;;;1.60;;
53594;SDS011;39479;45.720;11.310;2023-04-25T01:01:28;1.98;;;1.80;;
53594;SDS011;39479;45.720;11.310;2023-04-25T01:03:54;1.88;;;1.77;;
53594;SDS011;39479;45.720;11.310;2023-04-25T01:06:21;2.35;;;2.20;;
53594;SDS011;39479;45.720;11.310;2023-04-25T01:08:47;5.60;;;2.65;;
53594;SDS011;39479;45.720;11.310;2023-04-25T01:11:13;2.80;;;2.55;;
53594;SDS011;39479;45.720;11.310;2023-04-25T01:13:40;2.72;;;1.90;;
53594;SDS011;39479;45.720;11.310;2023-04-25T01:16:06;2.22;;;1.92;;
53594;SDS011;39479;45.720;11.310;2023-04-25T01:18:32;4.57;;;2.75;;
53594;SDS011;39479;45.720;11.310;2023-04-25T01:21:11;4.20;;;2.60;;
53594;SDS011;39479;45.720;11.310;2023-04-25T01:23:41;3.08;;;2.83;;
53594;SDS011;39479;45.720;11.310;2023-04-25T01:26:11;3.83;;;2.80;;
53594;SDS011;39479;45.720;11.310;2023-04-25T01:28:38;4.13;;;2.65;;
53594;SDS011;39479;45.720;11.310;2023-04-25T01:31:06;3.35;;;2.80;;
53594;SDS011;39479;45.720;11.310;2023-04-25T01:33:32;2.90;;;2.70;;
53594;SDS011;39479;45.720;11.310;2023-04-25T01:35:58;3.65;;;2.53;;
53594;SDS011;39479;45.720;11.310;2023-04-25T01:38:25;2.08;;;1.88;;
53594;SDS011;39479;45.720;11.310;2023-04-25T01:40:51;2.00;;;1.90;;
53594;SDS011;39479;45.720;11.310;2023-04-25T01:43:17;3.03;;;2.22;;
53594;SDS011;39479;45.720;11.310;2023-04-25T01:45:43;2.28;;;2.08;;
53594;SDS011;39479;45.720;11.310;2023-04-25T01:48:10;1.95;;;1.85;;
53594;SDS011;39479;45.720;11.310;2023-04-25T01:50:37;1.40;;;1.40;;
53594;SDS011;39479;45.720;11.310;2023-04-25T01:53:03;4.20;;;2.15;;
53594;SDS011;39479;45.720;11.310;2023-04-25T01:55:30;2.10;;;2.00;;
53594;SDS011;39479;45.720;11.310;2023-04-25T01:57:56;1.45;;;1.42;;
53594;SDS011;39479;45.720;11.310;2023-04-25T02:00:22;1.90;;;1.58;;
53594;SDS011;39479;45.720;11.310;2023-04-25T02:02:48;1.48;;;1.38;;
53594;SDS011;39479;45.720;11.310;2023-04-25T02:05:16;1.80;;;1.70;;
53594;SDS011;39479;45.720;11.310;2023-04-25T02:07:42;1.70;;;1.70;;
53594;SDS011;39479;45.720;11.310;2023-04-25T02:10:08;3.75;;;1.75;;
53594;SDS011;39479;45.720;11.310;2023-04-25T02:12:35;2.25;;;1.85;;
53594;SDS011;39479;45.720;11.310;2023-04-25T02:15:01;6.18;;;1.95;;
53594;SDS011;39479;45.720;11.310;2023-04-25T02:17:27;4.97;;;2.22;;
53594;SDS011;39479;45.720;11.310;2023-04-25T02:19:53;1.80;;;1.70;;
53594;SDS011;39479;45.720;11.310;2023-04-25T02:22:19;3.10;;;2.00;;
53594;SDS011;39479;45.720;11.310;2023-04-25T02:24:45;2.17;;;2.00;;
53594;SDS011;39479;45.720;11.310;2023-04-25T02:27:11;2.47;;;2.28;;
53594;SDS011;39479;45.720;11.310;2023-04-25T02:29:37;3.00;;;2.38;;
53594;SDS011;39479;45.720;11.310;2023-04-25T02:32:04;2.20;;;2.10;;
53594;SDS011;39479;45.720;11.310;2023-04-25T02:34:30;3.08;;;2.35;;
53594;SDS011;39479;45.720;11.310;2023-04-25T02:36:56;3.38;;;2.85;;
53594;SDS011;39479;45.720;11.310;2023-04-25T02:39:22;2.70;;;2.20;;
53594;SDS011;39479;45.720;11.310;2023-04-25T02:41:50;2.88;;;2.50;;
53594;SDS011;39479;45.720;11.310;2023-04-25T02:44:16;3.13;;;2.30;;
53594;SDS011;39479;45.720;11.310;2023-04-25T02:46:42;2.88;;;2.30;;
53594;SDS011;39479;45.720;11.310;2023-04-25T02:49:08;3.85;;;2.42;;
53594;SDS011;39479;45.720;11.310;2023-04-25T02:51:34;3.17;;;2.42;;
53594;SDS011;39479;45.720;11.310;2023-04-25T02:54:00;2.95;;;2.75;;
53594;SDS011;39479;45.720;11.310;2023-04-25T02:56:26;3.47;;;2.72;;
53594;SDS011;39479;45.720;11.310;2023-04-25T02:58:53;2.25;;;2.05;;
53594;SDS011;39479;45.720;11.310;2023-04-25T03:01:19;2.40;;;2.20;;
53594;SDS011;39479;45.720;11.310;2023-04-25T03:03:45;2.67;;;2.25;;
53594;SDS011;39479;45.720;11.310;2023-04-25T03:06:11;2.50;;;2.15;;
53594;SDS011;39479;45.720;11.310;2023-04-25T03:08:37;5.22;;;2.85;;
53594;SDS011;39479;45.720;11.310;2023-04-25T03:11:03;3.28;;;2.75;;
53594;SDS011;39479;45.720;11.310;2023-04-25T03:13:29;3.90;;;3.15;;
53594;SDS011;39479;45.720;11.310;2023-04-25T03:15:55;2.60;;;2.40;;
53594;SDS011;39479;45.720;11.310;2023-04-25T03:18:21;4.90;;;2.10;;
53594;SDS011;39479;45.720;11.310;2023-04-25T03:20:47;3.60;;;2.20;;
53594;SDS011;39479;45.720;11.310;2023-04-25T03:23:13;1.95;;;1.75;;
53594;SDS011;39479;45.720;11.310;2023-04-25T03:25:39;2.00;;;1.90;;
53594;SDS011;39479;45.720;11.310;2023-04-25T03:28:05;2.00;;;1.90;;
53594;SDS011;39479;45.720;11.310;2023-04-25T03:30:31;3.65;;;2.40;;
53594;SDS011;39479;45.720;11.310;2023-04-25T03:32:57;5.47;;;2.20;;
53594;SDS011;39479;45.720;11.310;2023-04-25T03:35:24;2.08;;;1.98;;
53594;SDS011;39479;45.720;11.310;2023-04-25T03:37:50;3.78;;;2.15;;
53594;SDS011;39479;45.720;11.310;2023-04-25T03:40:16;2.20;;;2.00;;
53594;SDS011;39479;45.720;11.310;2023-04-25T03:42:42;2.40;;;2.20;;
53594;SDS011;39479;45.720;11.310;2023-04-25T03:45:08;1.70;;;1.52;;
53594;SDS011;39479;45.720;11.310;2023-04-25T03:47:34;2.85;;;2.40;;
53594;SDS011;39479;45.720;11.310;2023-04-25T03:50:00;2.08;;;1.80;;
53594;SDS011;39479;45.720;11.310;2023-04-25T03:52:27;2.85;;;2.00;;
53594;SDS011;39479;45.720;11.310;2023-04-25T03:54:53;2.45;;;2.25;;
53594;SDS011;39479;45.720;11.310;2023-04-25T03:57:19;2.10;;;2.00;;
53594;SDS011;39479;45.720;11.310;2023-04-25T03:59:45;2.50;;;2.30;;
53594;SDS011;39479;45.720;11.310;2023-04-25T04:02:11;2.15;;;2.05;;
53594;SDS011;39479;45.720;11.310;2023-04-25T04:04:37;2.67;;;2.13;;
53594;SDS011;39479;45.720;11.310;2023-04-25T04:07:03;3.90;;;2.22;;
53594;SDS011;39479;45.720;11.310;2023-04-25T04:09:29;3.67;;;2.40;;
53594;SDS011;39479;45.720;11.310;2023-04-25T04:11:55;3.88;;;2.50;;
53594;SDS011;39479;45.720;11.310;2023-04-25T04:14:22;3.42;;;2.63;;
53594;SDS011;39479;45.720;11.310;2023-04-25T04:16:48;2.40;;;2.20;;
53594;SDS011;39479;45.720;11.310;2023-04-25T04:19:14;3.58;;;2.40;;
53594;SDS011;39479;45.720;11.310;2023-04-25T04:21:40;4.30;;;2.67;;
53594;SDS011;39479;45.720;11.310;2023-04-25T04:24:06;2.75;;;2.35;;
53594;SDS011;39479;45.720;11.310;2023-04-25T04:26:32;3.65;;;2.40;;
53594;SDS011;39479;45.720;11.310;2023-04-25T04:28:59;2.50;;;2.30;;
53594;SDS011;39479;45.720;11.310;2023-04-25T04:31:25;3.72;;;2.90;;
53594;SDS011;39479;45.720;11.310;2023-04-25T04:33:51;3.63;;;2.00;;
53594;SDS011;39479;45.720;11.310;2023-04-25T04:36:17;4.13;;;2.65;;
53594;SDS011;39479;45.720;11.310;2023-04-25T04:38:48;2.80;;;2.58;;
53594;SDS011;39479;45.720;11.310;2023-04-25T04:41:14;3.53;;;2.60;;
53594;SDS011;39479;45.720;11.310;2023-04-25T04:43:40;2.58;;;2.33;;
53594;SDS011;39479;45.720;11.310;2023-04-25T04:46:06;4.07;;;2.50;;
53594;SDS011;39479;45.720;11.310;2023-04-25T04:48:35;3.47;;;2.83;;
53594;SDS011;39479;45.720;11.310;2023-04-25T04:51:01;3.78;;;2.50;;
53594;SDS011;39479;45.720;11.310;2023-04-25T04:53:27;3.53;;;2.60;;
53594;SDS011;39479;45.720;11.310;2023-04-25T04:55:53;6.32;;;2.60;;
53594;SDS011;39479;45.720;11.310;2023-04-25T04:58:21;4.57;;;3.03;;
53594;SDS011;39479;45.720;11.310;2023-04-25T05:00:47;5.07;;;2.65;;
53594;SDS011;39479;45.720;11.310;2023-04-25T05:03:13;3.42;;;2.20;;
53594;SDS011;39479;45.720;11.310;2023-04-25T05:05:40;2.53;;;2.22;;
53594;SDS011;39479;45.720;11.310;2023-04-25T05:08:06;2.60;;;2.40;;
53594;SDS011;39479;45.720;11.310;2023-04-25T05:10:33;4.50;;;2.63;;
53594;SDS011;39479;45.720;11.310;2023-04-25T05:12:59;2.85;;;2.30;;
53594;SDS011;39479;45.720;11.310;2023-04-25T05:15:25;3.88;;;3.00;;
53594;SDS011;39479;45.720;11.310;2023-04-25T05:17:51;2.55;;;2.33;;
53594;SDS011;39479;45.720;11.310;2023-04-25T05:20:17;2.70;;;2.50;;
53594;SDS011;39479;45.720;11.310;2023-04-25T05:22:46;3.67;;;3.00;;
53594;SDS011;39479;45.720;11.310;2023-04-25T05:25:12;3.20;;;2.70;;
53594;SDS011;39479;45.720;11.310;2023-04-25T05:27:38;2.92;;;2.63;;
53594;SDS011;39479;45.720;11.310;2023-04-25T05:30:04;2.95;;;2.50;;
53594;SDS011;39479;45.720;11.310;2023-04-25T05:32:30;4.72;;;2.22;;
53594;SDS011;39479;45.720;11.310;2023-04-25T05:34:56;3.50;;;2.25;;
53594;SDS011;39479;45.720;11.310;2023-04-25T05:37:22;2.20;;;2.00;;
53594;SDS011;39479;45.720;11.310;2023-04-25T05:39:48;3.45;;;2.47;;
53594;SDS011;39479;45.720;11.310;2023-04-25T05:42:15;3.00;;;2.35;;
53594;SDS011;39479;45.720;11.310;2023-04-25T05:44:41;2.30;;;2.00;;
53594;SDS011;39479;45.720;11.310;2023-04-25T05:47:07;2.30;;;1.77;;
53594;SDS011;39479;45.720;11.310;2023-04-25T05:49:33;2.70;;;2.10;;
53594;SDS011;39479;45.720;11.310;2023-04-25T05:51:59;2.67;;;2.20;;
53594;SDS011;39479;45.720;11.310;2023-04-25T05:54:25;1.83;;;1.73;;
53594;SDS011;39479;45.720;11.310;2023-04-25T05:56:51;3.58;;;2.20;;
53594;SDS011;39479;45.720;11.310;2023-04-25T05:59:18;2.30;;;2.10;;
53594;SDS011;39479;45.720;11.310;2023-04-25T06:01:44;1.90;;;1.80;;
53594;SDS011;39479;45.720;11.310;2023-04-25T06:04:10;2.70;;;2.03;;
53594;SDS011;39479;45.720;11.310;2023-04-25T06:06:36;2.50;;;2.30;;
53594;SDS011;39479;45.720;11.310;2023-04-25T06:09:02;4.55;;;2.28;;
53594;SDS011;39479;45.720;11.310;2023-04-25T06:11:28;2.15;;;2.03;;
53594;SDS011;39479;45.720;11.310;2023-04-25T06:13:54;4.13;;;2.45;;
53594;SDS011;39479;45.720;11.310;2023-04-25T06:16:20;2.92;;;2.58;;
53594;SDS011;39479;45.720;11.310;2023-04-25T06:18:46;2.30;;;1.90;;
53594;SDS011;39479;45.720;11.310;2023-04-25T06:21:12;3.92;;;1.92;;
53594;SDS011;39479;45.720;11.310;2023-04-25T06:23:38;6.45;;;1.83;;
53594;SDS011;39479;45.720;11.310;2023-04-25T06:26:04;4.45;;;2.20;;
53594;SDS011;39479;45.720;11.310;2023-04-25T06:28:30;3.28;;;2.30;;
53594;SDS011;39479;45.720;11.310;2023-04-25T06:30:56;4.57;;;2.20;;
53594;SDS011;39479;45.720;11.310;2023-04-25T06:33:22;3.25;;;2.00;;
53594;SDS011;39479;45.720;11.310;2023-04-25T06:35:49;1.98;;;1.70;;
53594;SDS011;39479;45.720;11.310;2023-04-25T06:38:15;1.65;;;1.55;;
53594;SDS011;39479;45.720;11.310;2023-04-25T06:40:41;2.17;;;1.60;;
53594;SDS011;39479;45.720;11.310;2023-04-25T06:43:07;3.20;;;1.70;;
53594;SDS011;39479;45.720;11.310;2023-04-25T06:45:33;1.70;;;1.60;;
53594;SDS011;39479;45.720;11.310;2023-04-25T06:47:59;1.80;;;1.70;;
53594;SDS011;39479;45.720;11.310;2023-04-25T06:50:25;3.53;;;1.98;;
53594;SDS011;39479;45.720;11.310;2023-04-25T06:52:51;2.15;;;1.92;;
53594;SDS011;39479;45.720;11.310;2023-04-25T06:55:17;2.30;;;2.10;;
53594;SDS011;39479;45.720;11.310;2023-04-25T06:57:43;2.30;;;2.00;;
53594;SDS011;39479;45.720;11.310;2023-04-25T07:00:09;3.35;;;1.80;;
53594;SDS011;39479;45.720;11.310;2023-04-25T07:02:36;1.83;;;1.58;;
53594;SDS011;39479;45.720;11.310;2023-04-25T07:05:02;3.10;;;1.70;;
53594;SDS011;39479;45.720;11.310;2023-04-25T07:07:29;3.05;;;1.92;;
53594;SDS011;39479;45.720;11.310;2023-04-25T07:09:55;3.50;;;1.88;;
53594;SDS011;39479;45.720;11.310;2023-04-25T07:12:21;1.67;;;1.58;;
53594;SDS011;39479;45.720;11.310;2023-04-25T07:14:47;1.25;;;1.13;;
53594;SDS011;39479;45.720;11.310;2023-04-25T07:17:13;1.40;;;1.40;;
53594;SDS011;39479;45.720;11.310;2023-04-25T07:19:40;1.50;;;1.40;;
53594;SDS011;39479;45.720;11.310;2023-04-25T07:22:06;1.85;;;1.50;;
53594;SDS011;39479;45.720;11.310;2023-04-25T07:24:33;2.72;;;2.50;;
53594;SDS011;39479;45.720;11.310;2023-04-25T07:26:59;2.13;;;2.03;;
53594;SDS011;39479;45.720;11.310;2023-04-25T07:29:26;3.70;;;2.20;;
53594;SDS011;39479;45.720;11.310;2023-04-25T07:31:52;2.97;;;2.10;;
53594;SDS011;39479;45.720;11.310;2023-04-25T07:34:18;2.40;;;2.20;;
53594;SDS011;39479;45.720;11.310;2023-04-25T07:36:44;2.70;;;2.10;;
53594;SDS011;39479;45.720;11.310;2023-04-25T07:39:10;2.58;;;2.15;;
53594;SDS011;39479;45.720;11.310;2023-04-25T07:41:36;2.65;;;2.20;;
53594;SDS011;39479;45.720;11.310;2023-04-25T07:44:03;3.63;;;2.20;;
53594;SDS011;39479;45.720;11.310;2023-04-25T07:46:29;2.58;;;2.22;;
53594;SDS011;39479;45.720;11.310;2023-04-25T07:48:55;2.65;;;2.45;;
53594;SDS011;39479;45.720;11.310;2023-04-25T07:51:21;4.20;;;2.60;;
53594;SDS011;39479;45.720;11.310;2023-04-25T07:53:47;2.30;;;2.10;;
53594;SDS011;39479;45.720;11.310;2023-04-25T07:56:13;2.28;;;2.08;;
53594;SDS011;39479;45.720;11.310;2023-04-25T07:58:39;2.13;;;2.03;;
53594;SDS011;39479;45.720;11.310;2023-04-25T08:01:05;4.50;;;3.05;;
53594;SDS011;39479;45.720;11.310;2023-04-25T08:03:31;4.25;;;3.10;;
53594;SDS011;39479;45.720;11.310;2023-04-25T08:05:57;3.15;;;2.70;;
53594;SDS011;39479;45.720;11.310;2023-04-25T08:08:23;2.80;;;2.60;;
53594;SDS011;39479;45.720;11.310;2023-04-25T08:10:49;3.00;;;2.70;;
53594;SDS011;39479;45.720;11.310;2023-04-25T08:13:16;3.17;;;2.88;;
53594;SDS011;39479;45.720;11.310;2023-04-25T08:15:42;3.28;;;2.70;;
53594;SDS011;39479;45.720;11.310;2023-04-25T08:18:08;2.30;;;2.10;;
53594;SDS011;39479;45.720;11.310;2023-04-25T08:20:34;2.40;;;2.20;;
53594;SDS011;39479;45.720;11.310;2023-04-25T08:23:00;2.40;;;2.20;;
53594;SDS011;39479;45.720;11.310;2023-04-25T08:25:26;4.60;;;3.15;;
53594;SDS011;39479;45.720;11.310;2023-04-25T08:27:52;5.03;;;4.03;;
53594;SDS011;39479;45.720;11.310;2023-04-25T08:30:18;7.25;;;5.63;;
53594;SDS011;39479;45.720;11.310;2023-04-25T08:32:45;3.88;;;3.47;;
53594;SDS011;39479;45.720;11.310;2023-04-25T08:35:11;2.53;;;2.33;;
53594;SDS011;39479;45.720;11.310;2023-04-25T08:37:37;3.28;;;1.95;;
53594;SDS011;39479;45.720;11.310;2023-04-25T08:40:03;2.00;;;1.90;;
53594;SDS011;39479;45.720;11.310;2023-04-25T08:42:34;2.20;;;2.10;;
53594;SDS011;39479;45.720;11.310;2023-04-25T08:45:01;2.17;;;2.05;;
53594;SDS011;39479;45.720;11.310;2023-04-25T08:47:28;1.98;;;1.88;;
53594;SDS011;39479;45.720;11.310;2023-04-25T08:49:55;1.50;;;1.40;;
53594;SDS011;39479;45.720;11.310;2023-04-25T08:52:22;2.10;;;2.00;;
53594;SDS011;39479;45.720;11.310;2023-04-25T08:54:49;2.50;;;1.95;;
53594;SDS011;39479;45.720;11.310;2023-04-25T08:57:15;2.22;;;2.03;;
53594;SDS011;39479;45.720;11.310;2023-04-25T08:59:42;2.05;;;1.80;;
53594;SDS011;39479;45.720;11.310;2023-04-25T09:02:11;2.47;;;1.95;;
53594;SDS011;39479;45.720;11.310;2023-04-25T09:04:42;2.38;;;2.13;;
53594;SDS011;39479;45.720;11.310;2023-04-25T09:07:08;1.85;;;1.70;;
53594;SDS011;39479;45.720;11.310;2023-04-25T09:09:34;1.70;;;1.60;;
53594;SDS011;39479;45.720;11.310;2023-04-25T09:12:01;1.60;;;1.50;;
53594;SDS011;39479;45.720;11.310;2023-04-25T09:14:27;1.67;;;1.58;;
53594;SDS011;39479;45.720;11.310;2023-04-25T09:19:22;1.98;;;1.88;;
53594;SDS011;39479;45.720;11.310;2023-04-25T09:21:49;1.90;;;1.80;;
53594;SDS011;39479;45.720;11.310;2023-04-25T09:24:15;1.60;;;1.50;;
53594;SDS011;39479;45.720;11.310;2023-04-25T09:26:41;2.92;;;2.63;;
53594;SDS011;39479;45.720;11.310;2023-04-25T09:29:08;3.00;;;2.28;;
53594;SDS011;39479;45.720;11.310;2023-04-25T09:31:35;7.55;;;4.88;;
53594;SDS011;39479;45.720;11.310;2023-04-25T09:34:02;2.78;;;2.33;;
53594;SDS011;39479;45.720;11.310;2023-04-25T09:36:29;6.00;;;3.55;;
53594;SDS011;39479;45.720;11.310;2023-04-25T09:38:55;2.75;;;2.55;;
53594;SDS011;39479;45.720;11.310;2023-04-25T09:41:24;4.72;;;2.58;;
53594;SDS011;39479;45.720;11.310;2023-04-25T09:43:50;2.97;;;2.75;;
53594;SDS011;39479;45.720;11.310;2023-04-25T09:46:16;5.95;;;3.85;;
53594;SDS011;39479;45.720;11.310;2023-04-25T09:48:52;3.05;;;2.65;;
53594;SDS011;39479;45.720;11.310;2023-04-25T09:51:18;1.98;;;1.88;;
53594;SDS011;39479;45.720;11.310;2023-04-25T09:53:45;2.60;;;1.52;;
53594;SDS011;39479;45.720;11.310;2023-04-25T09:56:11;2.15;;;1.90;;
53594;SDS011;39479;45.720;11.310;2023-04-25T09:58:41;5.18;;;3.85;;
53594;SDS011;39479;45.720;11.310;2023-04-25T10:01:08;5.47;;;4.40;;
53594;SDS011;39479;45.720;11.310;2023-04-25T10:03:35;5.55;;;4.13;;
53594;SDS011;39479;45.720;11.310;2023-04-25T10:06:08;8.85;;;6.60;;
53594;SDS011;39479;45.720;11.310;2023-04-25T10:08:35;3.70;;;3.10;;
53594;SDS011;39479;45.720;11.310;2023-04-25T10:11:03;3.67;;;3.33;;
53594;SDS011;39479;45.720;11.310;2023-04-25T10:13:29;4.03;;;3.00;;
53594;SDS011;39479;45.720;11.310;2023-04-25T10:15:59;4.07;;;2.88;;
53594;SDS011;39479;45.720;11.310;2023-04-25T10:18:26;4.10;;;3.70;;
53594;SDS011;39479;45.720;11.310;2023-04-25T10:20:56;18.92;;;10.02;;
53594;SDS011;39479;45.720;11.310;2023-04-25T10:23:22;9.50;;;6.07;;
53594;SDS011;39479;45.720;11.310;2023-04-25T10:25:49;7.68;;;5.68;;
53594;SDS011;39479;45.720;11.310;2023-04-25T10:28:17;3.60;;;2.70;;
53594;SDS011;39479;45.720;11.310;2023-04-25T10:30:59;4.53;;;3.55;;
53594;SDS011;39479;45.720;11.310;2023-04-25T10:33:37;5.10;;;3.90;;
53594;SDS011;39479;45.720;11.310;2023-04-25T10:38:35;4.53;;;3.30;;
53594;SDS011;39479;45.720;11.310;2023-04-25T10:41:03;3.42;;;2.80;;
53594;SDS011;39479;45.720;11.310;2023-04-25T10:43:39;4.47;;;3.65;;
53594;SDS011;39479;45.720;11.310;2023-04-25T10:46:22;4.10;;;3.28;;
53594;SDS011;39479;45.720;11.310;2023-04-25T10:48:49;5.93;;;5.13;;
53594;SDS011;39479;45.720;11.310;2023-04-25T10:51:22;5.95;;;4.40;;
53594;SDS011;39479;45.720;11.310;2023-04-25T10:56:20;4.85;;;3.30;;
53594;SDS011;39479;45.720;11.310;2023-04-25T10:58:47;3.38;;;2.90;;
53594;SDS011;39479;45.720;11.310;2023-04-25T11:01:13;2.08;;;1.88;;
53594;SDS011;39479;45.720;11.310;2023-04-25T11:03:40;5.80;;;4.25;;
53594;SDS011;39479;45.720;11.310;2023-04-25T11:06:09;3.75;;;2.97;;
53594;SDS011;39479;45.720;11.310;2023-04-25T11:08:48;2.10;;;1.90;;
53594;SDS011;39479;45.720;11.310;2023-04-25T11:11:15;3.28;;;2.63;;
53594;SDS011;39479;45.720;11.310;2023-04-25T11:13:41;2.88;;;2.63;;
53594;SDS011;39479;45.720;11.310;2023-04-25T11:16:07;3.75;;;2.90;;
53594;SDS011;39479;45.720;11.310;2023-04-25T11:18:33;6.38;;;4.63;;
53594;SDS011;39479;45.720;11.310;2023-04-25T11:20:59;6.25;;;4.78;;
53594;SDS011;39479;45.720;11.310;2023-04-25T11:23:26;3.03;;;2.33;;
53594;SDS011;39479;45.720;11.310;2023-04-25T11:25:52;2.47;;;2.28;;
53594;SDS011;39479;45.720;11.310;2023-04-25T11:28:21;2.40;;;2.30;;
53594;SDS011;39479;45.720;11.310;2023-04-25T11:30:51;3.03;;;2.10;;
53594;SDS011;39479;45.720;11.310;2023-04-25T11:33:17;2.60;;;2.40;;
53594;SDS011;39479;45.720;11.310;2023-04-25T11:35:43;1.75;;;1.65;;
53594;SDS011;39479;45.720;11.310;2023-04-25T11:38:09;4.00;;;2.15;;
53594;SDS011;39479;45.720;11.310;2023-04-25T11:40:36;2.75;;;2.53;;
53594;SDS011;39479;45.720;11.310;2023-04-25T11:43:02;2.67;;;2.47;;
53594;SDS011;39479;45.720;11.310;2023-04-25T11:45:28;2.40;;;2.30;;
53594;SDS011;39479;45.720;11.310;2023-04-25T11:47:56;2.00;;;1.90;;
53594;SDS011;39479;45.720;11.310;2023-04-25T11:50:22;2.38;;;2.20;;
53594;SDS011;39479;45.720;11.310;2023-04-25T11:52:48;2.58;;;2.38;;
53594;SDS011;39479;45.720;11.310;2023-04-25T11:55:15;2.13;;;2.00;;
53594;SDS011;39479;45.720;11.310;2023-04-25T11:57:42;2.60;;;2.40;;
53594;SDS011;39479;45.720;11.310;2023-04-25T12:00:09;2.40;;;2.20;;
53594;SDS011;39479;45.720;11.310;2023-04-25T12:02:51;2.92;;;2.35;;
53594;SDS011;39479;45.720;11.310;2023-04-25T12:05:18;3.25;;;2.95;;
53594;SDS011;39479;45.720;11.310;2023-04-25T12:07:45;4.85;;;2.47;;
53594;SDS011;39479;45.720;11.310;2023-04-25T12:10:12;4.47;;;4.05;;
53594;SDS011;39479;45.720;11.310;2023-04-25T12:12:42;2.70;;;2.50;;
53594;SDS011;39479;45.720;11.310;2023-04-25T12:15:12;4.85;;;3.42;;
53594;SDS011;39479;45.720;11.310;2023-04-25T12:17:40;2.90;;;2.60;;
53594;SDS011;39479;45.720;11.310;2023-04-25T12:20:07;10.23;;;7.10;;
53594;SDS011;39479;45.720;11.310;2023-04-25T12:22:33;4.20;;;3.70;;
53594;SDS011;39479;45.720;11.310;2023-04-25T12:24:59;4.10;;;3.60;;
53594;SDS011;39479;45.720;11.310;2023-04-25T12:27:28;4.05;;;3.60;;
53594;SDS011;39479;45.720;11.310;2023-04-25T12:29:56;3.85;;;3.45;;
53594;SDS011;39479;45.720;11.310;2023-04-25T12:32:22;3.15;;;2.85;;
53594;SDS011;39479;45.720;11.310;2023-04-25T12:34:48;3.42;;;3.00;;
53594;SDS011;39479;45.720;11.310;2023-04-25T12:37:14;4.75;;;3.00;;
53594;SDS011;39479;45.720;11.310;2023-04-25T12:39:41;3.30;;;3.00;;
53594;SDS011;39479;45.720;11.310;2023-04-25T12:42:07;3.58;;;3.28;;
53594;SDS011;39479;45.720;11.310;2023-04-25T12:44:36;4.05;;;2.90;;
53594;SDS011;39479;45.720;11.310;2023-04-25T12:47:02;3.45;;;2.70;;
53594;SDS011;39479;45.720;11.310;2023-04-25T12:49:28;6.40;;;4.68;;
53594;SDS011;39479;45.720;11.310;2023-04-25T12:51:54;3.78;;;3.05;;
53594;SDS011;39479;45.720;11.310;2023-04-25T12:54:20;3.15;;;2.75;;
53594;SDS011;39479;45.720;11.310;2023-04-25T12:56:46;3.13;;;2.83;;
53594;SDS011;39479;45.720;11.310;2023-04-25T12:59:12;3.83;;;2.97;;
53594;SDS011;39479;45.720;11.310;2023-04-25T13:01:39;4.07;;;2.97;;
53594;SDS011;39479;45.720;11.310;2023-04-25T13:04:05;3.35;;;3.03;;
53594;SDS011;39479;45.720;11.310;2023-04-25T13:06:31;3.08;;;2.78;;
53594;SDS011;39479;45.720;11.310;2023-04-25T13:08:57;3.30;;;3.00;;
53594;SDS011;39479;45.720;11.310;2023-04-25T13:11:23;3.17;;;2.88;;
53594;SDS011;39479;45.720;11.310;2023-04-25T13:13:49;4.22;;;3.30;;
53594;SDS011;39479;45.720;11.310;2023-04-25T13:16:15;4.47;;;3.55;;
53594;SDS011;39479;45.720;11.310;2023-04-25T13:18:41;4.72;;;3.17;;
53594;SDS011;39479;45.720;11.310;2023-04-25T13:21:09;3.53;;;3.20;;
53594;SDS011;39479;45.720;11.310;2023-04-25T13:23:36;8.80;;;5.30;;
53594;SDS011;39479;45.720;11.310;2023-04-25T13:26:02;6.40;;;4.57;;
53594;SDS011;39479;45.720;11.310;2023-04-25T13:28:28;4.25;;;3.58;;
53594;SDS011;39479;45.720;11.310;2023-04-25T13:30:54;21.67;;;14.43;;
53594;SDS011;39479;45.720;11.310;2023-04-25T13:33:20;40.92;;;21.63;;
53594;SDS011;39479;45.720;11.310;2023-04-25T13:35:47;25.75;;;15.73;;
53594;SDS011;39479;45.720;11.310;2023-04-25T13:38:21;12.75;;;7.70;;
53594;SDS011;39479;45.720;11.310;2023-04-25T13:40:47;4.53;;;3.22;;
53594;SDS011;39479;45.720;11.310;2023-04-25T13:43:13;4.32;;;3.20;;
53594;SDS011;39479;45.720;11.310;2023-04-25T13:45:39;4.38;;;3.70;;
53594;SDS011;39479;45.720;11.310;2023-04-25T13:48:06;13.63;;;9.07;;
53594;SDS011;39479;45.720;11.310;2023-04-25T13:50:32;3.40;;;3.10;;
53594;SDS011;39479;45.720;11.310;2023-04-25T13:52:58;10.05;;;6.88;;
53594;SDS011;39479;45.720;11.310;2023-04-25T13:55:24;6.97;;;5.72;;
53594;SDS011;39479;45.720;11.310;2023-04-25T13:57:50;4.40;;;4.00;;
53594;SDS011;39479;45.720;11.310;2023-04-25T14:00:16;13.60;;;8.73;;
53594;SDS011;39479;45.720;11.310;2023-04-25T14:02:42;9.85;;;7.53;;
53594;SDS011;39479;45.720;11.310;2023-04-25T14:05:08;5.13;;;3.67;;
53594;SDS011;39479;45.720;11.310;2023-04-25T14:07:35;6.13;;;3.80;;
53594;SDS011;39479;45.720;11.310;2023-04-25T14:10:01;2.80;;;2.60;;
53594;SDS011;39479;45.720;11.310;2023-04-25T14:12:27;4.35;;;2.90;;
53594;SDS011;39479;45.720;11.310;2023-04-25T14:14:53;6.07;;;3.65;;
53594;SDS011;39479;45.720;11.310;2023-04-25T14:17:19;3.78;;;3.38;;
53594;SDS011;39479;45.720;11.310;2023-04-25T14:19:45;14.85;;;10.70;;
53594;SDS011;39479;45.720;11.310;2023-04-25T14:22:13;2.75;;;2.53;;
53594;SDS011;39479;45.720;11.310;2023-04-25T14:24:40;6.43;;;5.38;;
53594;SDS011;39479;45.720;11.310;2023-04-25T14:27:06;4.78;;;4.30;;
53594;SDS011;39479;45.720;11.310;2023-04-25T14:29:32;3.53;;;3.25;;
53594;SDS011;39479;45.720;11.310;2023-04-25T14:31:58;16.73;;;11.35;;
53594;SDS011;39479;45.720;11.310;2023-04-25T14:34:24;10.43;;;8.25;;
53594;SDS011;39479;45.720;11.310;2023-04-25T14:36:51;4.90;;;4.50;;